createdAt,value
2018-03-29T00:00:28.100Z,44.70
2018-03-29T00:01:02.019Z,43.10
2018-03-29T00:01:35.882Z,43.20
2018-03-29T00:02:09.741Z,41.53
2018-03-29T00:02:43.718Z,42.58
2018-03-29T00:03:17.585Z,39.17
2018-03-29T00:03:51.447Z,44.20
2018-03-29T00:04:25.325Z,40.80
2018-03-29T00:04:59.189Z,43.97
2018-03-29T00:05:33.077Z,42.95
2018-03-29T00:06:06.933Z,41.10
2018-03-29T00:06:40.801Z,44.13
2018-03-29T00:07:14.708Z,43.25
2018-03-29T00:07:48.571Z,41.33
2018-03-29T00:08:22.449Z,43.30
2018-03-29T00:08:56.326Z,44.42
2018-03-29T00:09:30.209Z,42.83
2018-03-29T00:10:04.060Z,40.80
2018-03-29T00:10:37.931Z,41.17
2018-03-29T00:11:11.802Z,43.60
2018-03-29T00:11:45.930Z,44.17
2018-03-29T00:12:19.795Z,43.87
2018-03-29T00:12:53.664Z,44.72
2018-03-29T00:13:27.628Z,42.53
2018-03-29T00:14:01.545Z,44.35
2018-03-29T00:14:35.472Z,42.45
2018-03-29T00:15:09.277Z,41.55
2018-03-29T00:15:43.145Z,42.95
2018-03-29T00:16:17.005Z,41.42
2018-03-29T00:16:50.868Z,43.90
2018-03-29T00:17:24.762Z,41.92
2018-03-29T00:17:58.618Z,43.60
2018-03-29T00:18:32.772Z,43.75
2018-03-29T00:19:06.728Z,43.00
2018-03-29T00:19:40.588Z,41.17
2018-03-29T00:20:14.662Z,42.00
2018-03-29T00:20:48.542Z,43.08
2018-03-29T00:21:22.402Z,42.25
2018-03-29T00:21:56.351Z,41.00
2018-03-29T00:22:30.214Z,38.53
2018-03-29T00:23:04.080Z,40.65
2018-03-29T00:23:37.944Z,41.03
2018-03-29T00:24:11.801Z,43.75
2018-03-29T00:24:45.885Z,39.92
2018-03-29T00:25:19.772Z,41.67
2018-03-29T00:25:53.633Z,43.83
2018-03-29T00:26:27.612Z,41.40
2018-03-29T00:27:01.478Z,42.25
2018-03-29T00:27:35.612Z,41.90
2018-03-29T00:28:09.487Z,41.65
2018-03-29T00:28:43.327Z,43.92
2018-03-29T00:29:17.197Z,42.60
2018-03-29T00:29:51.090Z,43.53
2018-03-29T00:30:24.990Z,42.80
2018-03-29T00:30:59.084Z,41.80
2018-03-29T00:31:32.945Z,43.22
2018-03-29T00:32:06.979Z,39.72
2018-03-29T00:32:40.837Z,43.47
2018-03-29T00:33:14.875Z,44.53
2018-03-29T00:33:48.723Z,42.00
2018-03-29T00:34:22.781Z,44.95
2018-03-29T00:34:56.653Z,43.17
2018-03-29T00:35:30.657Z,44.28
2018-03-29T00:36:04.556Z,42.50
2018-03-29T00:36:38.584Z,42.70
2018-03-29T00:37:12.752Z,41.75
2018-03-29T00:37:46.596Z,42.62
2018-03-29T00:38:20.544Z,42.53
2018-03-29T00:38:54.546Z,39.40
2018-03-29T00:39:28.445Z,41.58
2018-03-29T00:40:02.322Z,39.25
2018-03-29T00:40:36.361Z,42.22
2018-03-29T00:41:10.218Z,42.60
2018-03-29T00:41:44.116Z,41.10
2018-03-29T00:42:17.975Z,41.50
2018-03-29T00:42:51.840Z,40.95
2018-03-29T00:43:25.705Z,42.13
2018-03-29T00:43:59.707Z,41.08
2018-03-29T00:44:34.457Z,41.37
2018-03-29T00:45:08.527Z,42.70
2018-03-29T00:45:42.398Z,41.60
2018-03-29T00:46:16.266Z,43.65
2018-03-29T00:46:50.219Z,42.13
2018-03-29T00:47:24.079Z,43.17
2018-03-29T00:47:57.956Z,43.38
2018-03-29T00:48:31.816Z,45.03
2018-03-29T00:49:05.691Z,40.47
2018-03-29T00:49:39.554Z,40.72
2018-03-29T00:50:13.431Z,42.08
2018-03-29T00:50:47.294Z,42.25
2018-03-29T00:51:21.165Z,43.67
2018-03-29T00:51:55.030Z,44.40
2018-03-29T00:52:29.129Z,43.28
2018-03-29T00:53:08.722Z,44.22
2018-03-29T00:53:44.293Z,40.85
2018-03-29T00:54:18.161Z,44.50
2018-03-29T00:54:52.027Z,43.45
2018-03-29T00:55:25.901Z,43.87
2018-03-29T00:55:59.757Z,41.00
2018-03-29T00:56:33.625Z,46.47
2018-03-29T00:57:07.482Z,43.83
2018-03-29T00:57:41.377Z,40.50
2018-03-29T00:58:15.236Z,44.63
2018-03-29T00:58:49.097Z,41.47
2018-03-29T00:59:22.947Z,40.92
2018-03-29T00:59:56.806Z,44.30
2018-03-29T01:00:30.684Z,42.15
2018-03-29T01:01:04.648Z,40.78
2018-03-29T01:01:38.525Z,38.03
2018-03-29T01:02:12.384Z,38.45
2018-03-29T01:02:46.262Z,40.22
2018-03-29T01:03:20.127Z,42.13
2018-03-29T01:03:53.989Z,39.20
2018-03-29T01:04:27.840Z,38.30
2018-03-29T01:05:01.717Z,38.72
2018-03-29T01:05:35.606Z,39.80
2018-03-29T01:06:09.469Z,41.25
2018-03-29T01:06:43.330Z,40.20
2018-03-29T01:07:17.292Z,38.25
2018-03-29T01:07:51.158Z,39.28
2018-03-29T01:08:25.019Z,38.58
2018-03-29T01:08:58.898Z,40.03
2018-03-29T01:09:32.757Z,40.08
2018-03-29T01:10:06.614Z,39.33
2018-03-29T01:10:40.662Z,40.85
2018-03-29T01:11:14.526Z,38.13
2018-03-29T01:11:48.400Z,38.20
2018-03-29T01:12:22.270Z,38.78
2018-03-29T01:12:56.785Z,41.50
2018-03-29T01:13:30.633Z,40.03
2018-03-29T01:14:04.492Z,39.15
2018-03-29T01:14:38.350Z,38.65
2018-03-29T01:15:12.209Z,41.30
2018-03-29T01:15:46.087Z,39.28
2018-03-29T01:16:19.942Z,39.88
2018-03-29T01:16:53.922Z,39.65
2018-03-29T01:17:27.785Z,39.22
2018-03-29T01:18:01.652Z,40.25
2018-03-29T01:18:35.607Z,41.70
2018-03-29T01:19:09.459Z,42.08
2018-03-29T01:19:43.328Z,42.28
2018-03-29T01:20:17.188Z,37.85
2018-03-29T01:20:51.062Z,39.20
2018-03-29T01:21:24.913Z,37.00
2018-03-29T01:21:58.774Z,38.75
2018-03-29T01:22:32.626Z,40.75
2018-03-29T01:23:06.488Z,39.97
2018-03-29T01:23:40.357Z,38.47
2018-03-29T01:24:14.206Z,39.72
2018-03-29T01:24:48.275Z,38.78
2018-03-29T01:25:22.144Z,38.47
2018-03-29T01:25:56.027Z,36.92
2018-03-29T01:26:29.902Z,40.53
2018-03-29T01:27:03.758Z,40.30
2018-03-29T01:27:37.608Z,41.45
2018-03-29T01:28:11.477Z,41.58
2018-03-29T01:28:45.348Z,39.95
2018-03-29T01:29:19.209Z,40.17
2018-03-29T01:29:53.102Z,41.25
2018-03-29T01:30:26.964Z,41.75
2018-03-29T01:31:00.834Z,39.72
2018-03-29T01:31:34.920Z,40.83
2018-03-29T01:32:08.798Z,39.90
2018-03-29T01:32:42.660Z,36.53
2018-03-29T01:33:16.528Z,42.67
2018-03-29T01:33:50.392Z,42.92
2018-03-29T01:34:24.245Z,40.20
2018-03-29T01:34:58.109Z,39.65
2018-03-29T01:35:32.003Z,42.10
2018-03-29T01:36:05.955Z,39.88
2018-03-29T01:36:39.824Z,40.08
2018-03-29T01:37:13.683Z,41.33
2018-03-29T01:37:47.552Z,41.72
2018-03-29T01:38:21.415Z,41.17
2018-03-29T01:38:55.273Z,41.83
2018-03-29T01:39:29.144Z,41.03
2018-03-29T01:40:03.003Z,39.08
2018-03-29T01:40:36.882Z,41.72
2018-03-29T01:41:10.778Z,42.08
2018-03-29T01:41:44.641Z,41.67
2018-03-29T01:42:18.516Z,42.25
2018-03-29T01:42:52.361Z,40.70
2018-03-29T01:43:26.233Z,42.35
2018-03-29T01:44:00.100Z,40.50
2018-03-29T01:44:33.990Z,43.90
2018-03-29T01:45:07.858Z,42.17
2018-03-29T01:45:41.729Z,42.58
2018-03-29T01:46:15.598Z,39.55
2018-03-29T01:46:49.469Z,41.75
2018-03-29T01:47:23.330Z,43.70
2018-03-29T01:47:57.192Z,42.85
2018-03-29T01:48:31.049Z,42.03
2018-03-29T01:49:04.896Z,42.33
2018-03-29T01:49:38.754Z,40.47
2018-03-29T01:50:12.627Z,41.65
2018-03-29T01:50:46.567Z,43.13
2018-03-29T01:51:20.450Z,43.72
2018-03-29T01:51:54.613Z,42.20
2018-03-29T01:52:28.466Z,43.95
2018-03-29T01:53:02.329Z,42.00
2018-03-29T01:53:36.297Z,43.13
2018-03-29T01:54:10.161Z,42.42
2018-03-29T01:54:44.016Z,43.58
2018-03-29T01:55:17.884Z,46.22
2018-03-29T01:55:51.740Z,43.05
2018-03-29T01:56:25.643Z,44.65
2018-03-29T01:56:59.504Z,45.95
2018-03-29T01:57:33.385Z,47.65
2018-03-29T01:58:07.265Z,44.33
2018-03-29T01:58:41.257Z,45.42
2018-03-29T01:59:15.130Z,44.47
2018-03-29T01:59:49.249Z,48.28
2018-03-29T02:00:23.146Z,45.88
2018-03-29T02:00:57.070Z,48.00
2018-03-29T02:01:30.971Z,48.83
2018-03-29T02:02:04.824Z,45.03
2018-03-29T02:02:38.823Z,46.50
2018-03-29T02:03:12.843Z,43.78
2018-03-29T02:03:46.822Z,47.30
2018-03-29T02:04:20.695Z,45.85
2018-03-29T02:04:54.611Z,47.58
2018-03-29T02:05:28.501Z,44.00
2018-03-29T02:06:02.510Z,46.75
2018-03-29T02:06:36.604Z,42.92
2018-03-29T02:07:10.477Z,45.50
2018-03-29T02:07:44.389Z,46.13
2018-03-29T02:08:18.291Z,47.70
2018-03-29T02:08:52.150Z,46.50
2018-03-29T02:09:26.017Z,47.58
2018-03-29T02:09:59.879Z,48.65
2018-03-29T02:10:33.743Z,49.55
2018-03-29T02:11:07.600Z,50.58
2018-03-29T02:11:41.661Z,49.70
2018-03-29T02:12:15.522Z,50.63
2018-03-29T02:12:49.395Z,48.38
2018-03-29T02:13:23.347Z,49.95
2018-03-29T02:13:57.219Z,48.60
2018-03-29T02:14:31.086Z,49.25
2018-03-29T02:15:05.177Z,50.17
2018-03-29T02:15:39.042Z,47.55
2018-03-29T02:16:12.911Z,49.28
2018-03-29T02:16:47.011Z,49.28
2018-03-29T02:17:20.880Z,50.35
2018-03-29T02:17:54.745Z,48.45
2018-03-29T02:18:28.717Z,49.28
2018-03-29T02:19:02.586Z,48.67
2018-03-29T02:19:36.440Z,47.47
2018-03-29T02:20:10.309Z,47.20
2018-03-29T02:20:44.179Z,49.10
2018-03-29T02:21:18.291Z,47.83
2018-03-29T02:21:52.169Z,47.25
2018-03-29T02:22:26.075Z,47.00
2018-03-29T02:22:59.918Z,48.85
2018-03-29T02:23:33.797Z,46.90
2018-03-29T02:24:07.664Z,46.80
2018-03-29T02:24:41.525Z,47.30
2018-03-29T02:25:15.390Z,49.40
2018-03-29T02:25:49.249Z,47.00
2018-03-29T02:26:23.110Z,49.20
2018-03-29T02:26:56.993Z,46.42
2018-03-29T02:27:30.851Z,48.03
2018-03-29T02:28:04.701Z,50.45
2018-03-29T02:28:38.569Z,47.25
2018-03-29T02:29:12.440Z,49.15
2018-03-29T02:29:46.287Z,47.97
2018-03-29T02:30:20.129Z,47.72
2018-03-29T02:30:54.003Z,50.00
2018-03-29T02:31:27.858Z,46.78
2018-03-29T02:32:01.734Z,47.50
2018-03-29T02:32:35.602Z,48.50
2018-03-29T02:33:09.465Z,48.50
2018-03-29T02:33:43.336Z,47.53
2018-03-29T02:34:17.277Z,49.92
2018-03-29T02:34:51.137Z,48.40
2018-03-29T02:35:25.198Z,48.60
2018-03-29T02:35:59.050Z,47.75
2018-03-29T02:36:33.029Z,47.45
2018-03-29T02:37:07.169Z,51.63
2018-03-29T02:37:41.052Z,49.13
2018-03-29T02:38:14.985Z,49.92
2018-03-29T02:38:48.944Z,49.90
2018-03-29T02:39:22.805Z,48.65
2018-03-29T02:39:56.958Z,48.50
2018-03-29T02:40:30.824Z,47.80
2018-03-29T02:41:04.734Z,48.55
2018-03-29T02:41:38.729Z,47.97
2018-03-29T02:42:12.603Z,47.60
2018-03-29T02:42:46.461Z,45.55
2018-03-29T02:43:20.326Z,50.12
2018-03-29T02:43:54.721Z,47.28
2018-03-29T02:44:28.719Z,51.05
2018-03-29T02:45:02.734Z,49.40
2018-03-29T02:45:36.600Z,46.65
2018-03-29T02:46:10.467Z,46.80
2018-03-29T02:46:44.339Z,47.45
2018-03-29T02:47:18.222Z,46.00
2018-03-29T02:47:52.113Z,49.10
2018-03-29T02:48:25.976Z,48.13
2018-03-29T02:48:59.897Z,48.20
2018-03-29T02:49:33.770Z,47.60
2018-03-29T02:50:07.784Z,45.80
2018-03-29T02:50:41.655Z,49.33
2018-03-29T02:51:15.673Z,49.90
2018-03-29T02:51:49.533Z,45.03
2018-03-29T02:52:23.590Z,45.12
2018-03-29T02:52:57.450Z,48.38
2018-03-29T02:53:31.312Z,47.97
2018-03-29T02:54:05.179Z,47.45
2018-03-29T02:54:39.138Z,49.97
2018-03-29T02:55:13.012Z,46.85
2018-03-29T02:55:46.874Z,46.80
2018-03-29T02:56:20.827Z,45.85
2018-03-29T02:56:54.820Z,46.08
2018-03-29T02:57:28.762Z,46.08
2018-03-29T02:58:02.724Z,44.95
2018-03-29T02:58:36.609Z,42.42
2018-03-29T02:59:10.817Z,45.25
2018-03-29T02:59:44.710Z,43.97
2018-03-29T03:00:18.704Z,40.12
2018-03-29T03:00:52.606Z,44.40
2018-03-29T03:01:26.599Z,42.00
2018-03-29T03:02:00.537Z,41.17
2018-03-29T03:02:34.434Z,39.47
2018-03-29T03:03:08.597Z,38.17
2018-03-29T03:03:42.462Z,40.30
2018-03-29T03:04:16.337Z,38.63
2018-03-29T03:04:50.483Z,37.55
2018-03-29T03:05:24.377Z,36.90
2018-03-29T03:05:58.228Z,35.80
2018-03-29T03:06:32.086Z,37.00
2018-03-29T03:07:05.953Z,36.85
2018-03-29T03:07:39.831Z,35.72
2018-03-29T03:08:13.707Z,35.38
2018-03-29T03:08:47.572Z,38.47
2018-03-29T03:09:21.434Z,37.58
2018-03-29T03:09:55.355Z,36.58
2018-03-29T03:10:29.244Z,37.78
2018-03-29T03:11:03.113Z,34.75
2018-03-29T03:11:37.158Z,38.42
2018-03-29T03:12:11.027Z,34.75
2018-03-29T03:12:45.119Z,34.55
2018-03-29T03:13:19.255Z,33.05
2018-03-29T03:13:53.628Z,34.67
2018-03-29T03:14:27.496Z,33.85
2018-03-29T03:15:01.437Z,33.65
2018-03-29T03:15:35.302Z,35.45
2018-03-29T03:16:09.159Z,33.80
2018-03-29T03:16:43.112Z,32.45
2018-03-29T03:17:17.005Z,32.10
2018-03-29T03:17:51.024Z,33.35
2018-03-29T03:18:24.879Z,32.97
2018-03-29T03:18:59.112Z,30.60
2018-03-29T03:19:32.973Z,32.30
2018-03-29T03:20:06.830Z,31.33
2018-03-29T03:20:40.706Z,31.92
2018-03-29T03:21:14.678Z,28.83
2018-03-29T03:21:48.549Z,31.00
2018-03-29T03:22:22.468Z,28.92
2018-03-29T03:22:56.420Z,29.12
2018-03-29T03:23:30.279Z,26.83
2018-03-29T03:24:04.360Z,27.00
2018-03-29T03:24:38.356Z,27.45
2018-03-29T03:25:12.229Z,26.80
2018-03-29T03:25:46.144Z,26.08
2018-03-29T03:26:20.024Z,24.60
2018-03-29T03:26:53.898Z,26.35
2018-03-29T03:27:27.948Z,25.40
2018-03-29T03:28:01.944Z,25.73
2018-03-29T03:28:35.825Z,26.17
2018-03-29T03:29:09.681Z,28.80
2018-03-29T03:29:43.548Z,23.40
2018-03-29T03:30:17.411Z,24.60
2018-03-29T03:30:51.510Z,25.10
2018-03-29T03:31:25.366Z,24.55
2018-03-29T03:31:59.235Z,24.25
2018-03-29T03:32:33.409Z,25.05
2018-03-29T03:33:07.394Z,23.10
2018-03-29T03:33:41.269Z,23.08
2018-03-29T03:34:15.129Z,24.00
2018-03-29T03:34:49.210Z,22.90
2018-03-29T03:35:23.064Z,22.30
2018-03-29T03:35:57.801Z,23.00
2018-03-29T03:36:31.696Z,24.30
2018-03-29T03:37:05.591Z,23.35
2018-03-29T03:37:39.586Z,22.23
2018-03-29T03:38:13.483Z,22.40
2018-03-29T03:38:47.336Z,21.55
2018-03-29T03:39:21.277Z,23.67
2018-03-29T03:39:55.281Z,22.05
2018-03-29T03:40:29.305Z,21.35
2018-03-29T03:41:03.176Z,21.90
2018-03-29T03:41:37.060Z,21.45
2018-03-29T03:42:10.932Z,21.35
2018-03-29T03:42:44.981Z,22.85
2018-03-29T03:43:19.060Z,22.65
2018-03-29T03:43:52.925Z,20.80
2018-03-29T03:44:26.782Z,21.48
2018-03-29T03:45:00.645Z,19.35
2018-03-29T03:45:34.550Z,21.73
2018-03-29T03:46:08.420Z,20.60
2018-03-29T03:46:42.281Z,20.35
2018-03-29T03:47:16.431Z,22.20
2018-03-29T03:47:50.416Z,21.17
2018-03-29T03:48:24.317Z,21.42
2018-03-29T03:48:58.184Z,20.83
2018-03-29T03:49:32.106Z,19.67
2018-03-29T03:50:06.107Z,20.15
2018-03-29T03:50:39.982Z,21.42
2018-03-29T03:51:14.076Z,20.65
2018-03-29T03:51:48.036Z,21.37
2018-03-29T03:52:22.097Z,20.83
2018-03-29T03:52:55.965Z,21.62
2018-03-29T03:53:29.836Z,19.17
2018-03-29T03:54:03.697Z,20.20
2018-03-29T03:54:37.557Z,19.52
2018-03-29T03:55:11.452Z,19.10
2018-03-29T03:55:45.332Z,20.95
2018-03-29T03:56:19.567Z,21.35
2018-03-29T03:56:53.560Z,20.60
2018-03-29T03:57:27.422Z,20.90
2018-03-29T03:58:01.571Z,20.08
2018-03-29T03:58:35.476Z,21.20
2018-03-29T03:59:09.357Z,20.52
2018-03-29T03:59:43.253Z,20.83
2018-03-29T04:00:17.144Z,19.75
2018-03-29T04:00:51.012Z,20.75
2018-03-29T04:01:25.046Z,21.55
2018-03-29T04:01:58.958Z,19.52
2018-03-29T04:02:32.821Z,20.58
2018-03-29T04:03:06.819Z,19.50
2018-03-29T04:03:40.928Z,21.75
2018-03-29T04:04:14.780Z,20.30
2018-03-29T04:04:48.741Z,20.00
2018-03-29T04:05:22.612Z,20.45
2018-03-29T04:05:56.822Z,20.95
2018-03-29T04:06:30.712Z,20.45
2018-03-29T04:07:04.573Z,20.12
2018-03-29T04:07:38.517Z,19.20
2018-03-29T04:08:12.495Z,20.37
2018-03-29T04:08:46.360Z,19.42
2018-03-29T04:09:20.303Z,18.62
2018-03-29T04:09:54.161Z,18.87
2018-03-29T04:10:28.023Z,17.33
2018-03-29T04:11:01.882Z,19.20
2018-03-29T04:11:35.760Z,17.77
2018-03-29T04:12:09.622Z,18.80
2018-03-29T04:12:43.490Z,17.12
2018-03-29T04:13:17.437Z,19.08
2018-03-29T04:13:51.340Z,18.92
2018-03-29T04:14:25.213Z,18.70
2018-03-29T04:14:59.089Z,18.58
2018-03-29T04:15:32.988Z,19.62
2018-03-29T04:16:06.931Z,18.73
2018-03-29T04:16:40.845Z,19.35
2018-03-29T04:17:14.705Z,18.40
2018-03-29T04:17:48.560Z,19.98
2018-03-29T04:18:22.429Z,19.58
2018-03-29T04:18:56.333Z,17.80
2018-03-29T04:19:30.545Z,19.00
2018-03-29T04:20:04.508Z,18.77
2018-03-29T04:20:38.376Z,19.12
2018-03-29T04:21:12.311Z,19.75
2018-03-29T04:21:46.174Z,18.33
2018-03-29T04:22:20.030Z,19.40
2018-03-29T04:22:54.178Z,18.12
2018-03-29T04:23:28.043Z,18.73
2018-03-29T04:24:01.920Z,19.52
2018-03-29T04:24:35.863Z,18.15
2018-03-29T04:25:09.858Z,18.65
2018-03-29T04:25:43.742Z,17.00
2018-03-29T04:26:17.652Z,17.60
2018-03-29T04:26:51.520Z,17.08
2018-03-29T04:27:25.381Z,18.20
2018-03-29T04:27:59.297Z,17.45
2018-03-29T04:28:33.253Z,16.92
2018-03-29T04:29:07.437Z,17.73
2018-03-29T04:29:41.290Z,17.17
2018-03-29T04:30:15.173Z,17.00
2018-03-29T04:30:49.237Z,17.73
2018-03-29T04:31:23.118Z,16.67
2018-03-29T04:31:56.989Z,17.25
2018-03-29T04:32:31.026Z,16.62
2018-03-29T04:33:05.030Z,18.58
2018-03-29T04:33:38.892Z,17.10
2018-03-29T04:34:12.765Z,16.60
2018-03-29T04:34:46.624Z,15.82
2018-03-29T04:35:20.563Z,17.25
2018-03-29T04:35:54.392Z,16.23
2018-03-29T04:36:28.253Z,16.25
2018-03-29T04:37:02.131Z,15.98
2018-03-29T04:37:36.179Z,14.90
2018-03-29T04:38:10.172Z,16.12
2018-03-29T04:38:44.023Z,15.60
2018-03-29T04:39:18.232Z,14.77
2018-03-29T04:39:52.200Z,16.35
2018-03-29T04:40:26.065Z,17.00
2018-03-29T04:41:00.065Z,16.60
2018-03-29T04:41:33.932Z,15.55
2018-03-29T04:42:07.794Z,15.65
2018-03-29T04:42:41.962Z,15.77
2018-03-29T04:43:15.845Z,16.73
2018-03-29T04:43:49.954Z,15.10
2018-03-29T04:44:23.941Z,15.55
2018-03-29T04:44:57.814Z,15.40
2018-03-29T04:45:31.697Z,15.48
2018-03-29T04:46:05.598Z,15.10
2018-03-29T04:46:39.529Z,14.60
2018-03-29T04:47:13.419Z,13.40
2018-03-29T04:47:47.417Z,13.52
2018-03-29T04:48:21.290Z,14.70
2018-03-29T04:48:55.160Z,12.73
2018-03-29T04:49:29.036Z,15.23
2018-03-29T04:50:02.897Z,13.15
2018-03-29T04:50:36.792Z,13.02
2018-03-29T04:51:10.648Z,12.60
2018-03-29T04:51:44.517Z,13.30
2018-03-29T04:52:18.412Z,13.38
2018-03-29T04:52:52.277Z,12.90
2018-03-29T04:53:26.145Z,12.27
2018-03-29T04:54:00.103Z,12.27
2018-03-29T04:54:33.985Z,13.62
2018-03-29T04:55:07.837Z,12.37
2018-03-29T04:55:41.702Z,13.43
2018-03-29T04:56:15.581Z,13.55
2018-03-29T04:56:49.440Z,12.93
2018-03-29T04:57:23.318Z,12.65
2018-03-29T04:57:57.328Z,13.65
2018-03-29T04:58:31.197Z,12.98
2018-03-29T04:59:05.138Z,13.13
2018-03-29T04:59:39.023Z,12.00
2018-03-29T05:00:12.922Z,11.70
2018-03-29T05:00:46.780Z,12.13
2018-03-29T05:01:20.739Z,11.80
2018-03-29T05:01:54.585Z,11.80
2018-03-29T05:02:28.446Z,11.73
2018-03-29T05:03:02.314Z,11.60
2018-03-29T05:03:36.184Z,13.10
2018-03-29T05:04:10.167Z,11.68
2018-03-29T05:04:44.036Z,13.52
2018-03-29T05:05:18.525Z,12.15
2018-03-29T05:05:52.578Z,11.93
2018-03-29T05:06:26.446Z,11.25
2018-03-29T05:07:00.314Z,13.07
2018-03-29T05:07:34.505Z,11.05
2018-03-29T05:08:08.511Z,11.43
2018-03-29T05:08:42.481Z,11.65
2018-03-29T05:09:16.356Z,10.93
2018-03-29T05:09:50.236Z,11.15
2018-03-29T05:10:24.279Z,10.20
2018-03-29T05:10:58.160Z,11.88
2018-03-29T05:11:32.085Z,10.85
2018-03-29T05:12:06.628Z,10.93
2018-03-29T05:12:40.489Z,10.13
2018-03-29T05:13:14.383Z,10.52
2018-03-29T05:13:48.225Z,10.35
2018-03-29T05:14:22.109Z,11.93
2018-03-29T05:14:55.993Z,11.90
2018-03-29T05:15:29.846Z,12.43
2018-03-29T05:16:03.926Z,11.80
2018-03-29T05:16:37.788Z,11.40
2018-03-29T05:17:11.645Z,9.93
2018-03-29T05:17:45.540Z,10.32
2018-03-29T05:18:19.465Z,10.88
2018-03-29T05:18:53.338Z,10.10
2018-03-29T05:19:27.197Z,10.25
2018-03-29T05:20:01.080Z,11.75
2018-03-29T05:20:34.941Z,10.90
2018-03-29T05:21:08.849Z,10.75
2018-03-29T05:21:42.730Z,10.07
2018-03-29T05:22:16.588Z,9.50
2018-03-29T05:22:50.463Z,10.30
2018-03-29T05:23:24.320Z,10.65
2018-03-29T05:23:58.251Z,9.70
2018-03-29T05:24:32.108Z,9.13
2018-03-29T05:25:05.984Z,8.95
2018-03-29T05:25:39.946Z,8.52
2018-03-29T05:26:13.811Z,8.75
2018-03-29T05:26:49.673Z,7.22
2018-03-29T05:27:25.465Z,8.55
2018-03-29T05:27:59.337Z,7.47
2018-03-29T05:28:33.204Z,8.35
2018-03-29T05:29:07.073Z,7.20
2018-03-29T05:29:41.092Z,7.62
2018-03-29T05:30:14.982Z,7.12
2018-03-29T05:30:48.854Z,7.03
2018-03-29T05:31:22.779Z,7.37
2018-03-29T05:31:56.637Z,7.12
2018-03-29T05:32:30.506Z,7.78
2018-03-29T05:33:04.372Z,6.65
2018-03-29T05:33:38.240Z,6.95
2018-03-29T05:34:12.365Z,7.55
2018-03-29T05:34:46.262Z,6.30
2018-03-29T05:35:20.127Z,6.78
2018-03-29T05:35:53.993Z,7.05
2018-03-29T05:36:27.841Z,7.50
2018-03-29T05:37:01.832Z,7.30
2018-03-29T05:37:36.041Z,6.97
2018-03-29T05:38:09.924Z,7.50
2018-03-29T05:38:43.778Z,7.22
2018-03-29T05:39:17.723Z,7.65
2018-03-29T05:39:51.580Z,8.50
2018-03-29T05:40:25.514Z,7.20
2018-03-29T05:40:59.382Z,6.75
2018-03-29T05:41:33.253Z,6.47
2018-03-29T05:42:09.337Z,6.35
2018-03-29T05:42:43.197Z,6.50
2018-03-29T05:43:17.046Z,6.93
2018-03-29T05:43:50.910Z,5.90
2018-03-29T05:44:24.805Z,6.68
2018-03-29T05:44:58.669Z,5.72
2018-03-29T05:45:32.567Z,7.47
2018-03-29T05:46:06.440Z,6.47
2018-03-29T05:46:40.410Z,6.20
2018-03-29T05:47:14.285Z,7.03
2018-03-29T05:47:48.142Z,5.75
2018-03-29T05:48:22.009Z,6.72
2018-03-29T05:48:55.894Z,5.95
2018-03-29T05:49:29.749Z,6.87
2018-03-29T05:50:03.624Z,6.80
2018-03-29T05:50:37.577Z,6.18
2018-03-29T05:51:11.448Z,6.12
2018-03-29T05:51:45.316Z,6.68
2018-03-29T05:52:19.198Z,6.80
2018-03-29T05:52:53.064Z,6.70
2018-03-29T05:53:26.927Z,5.95
2018-03-29T05:54:00.789Z,6.87
2018-03-29T05:54:34.647Z,6.12
2018-03-29T05:55:08.519Z,6.00
2018-03-29T05:55:42.551Z,6.50
2018-03-29T05:56:16.544Z,6.25
2018-03-29T05:56:50.414Z,7.87
2018-03-29T05:57:24.420Z,6.80
2018-03-29T05:57:58.553Z,5.85
2018-03-29T05:58:32.495Z,6.55
2018-03-29T05:59:06.545Z,6.53
2018-03-29T05:59:40.725Z,5.60
2018-03-29T06:00:14.648Z,6.40
2018-03-29T06:00:48.537Z,7.12
2018-03-29T06:01:22.417Z,6.87
2018-03-29T06:01:56.288Z,6.45
2018-03-29T06:02:30.167Z,6.55
2018-03-29T06:03:04.191Z,6.78
2018-03-29T06:03:37.968Z,6.78
2018-03-29T06:04:11.827Z,6.72
2018-03-29T06:04:45.686Z,5.95
2018-03-29T06:05:19.539Z,6.35
2018-03-29T06:05:53.446Z,5.90
2018-03-29T06:06:27.304Z,6.90
2018-03-29T06:07:01.171Z,6.87
2018-03-29T06:07:35.029Z,7.60
2018-03-29T06:08:08.885Z,6.30
2018-03-29T06:08:42.882Z,6.80
2018-03-29T06:09:16.754Z,6.75
2018-03-29T06:09:50.618Z,6.15
2018-03-29T06:10:24.627Z,6.68
2018-03-29T06:10:58.542Z,5.80
2018-03-29T06:11:32.370Z,6.03
2018-03-29T06:12:06.250Z,5.62
2018-03-29T06:12:40.141Z,5.80
2018-03-29T06:13:14.134Z,5.40
2018-03-29T06:13:53.692Z,5.70
2018-03-29T06:14:33.344Z,5.55
2018-03-29T06:15:13.033Z,5.57
2018-03-29T06:15:46.889Z,6.10
2018-03-29T06:16:20.788Z,5.87
2018-03-29T06:16:54.686Z,7.45
2018-03-29T06:17:28.539Z,6.60
2018-03-29T06:18:02.400Z,6.12
2018-03-29T06:18:36.375Z,6.37
2018-03-29T06:19:10.235Z,6.43
2018-03-29T06:19:44.265Z,7.05
2018-03-29T06:20:18.114Z,5.60
2018-03-29T06:20:51.968Z,5.80
2018-03-29T06:21:26.057Z,5.93
2018-03-29T06:21:59.949Z,6.10
2018-03-29T06:22:33.817Z,5.80
2018-03-29T06:23:07.742Z,6.25
2018-03-29T06:23:41.586Z,6.72
2018-03-29T06:24:15.506Z,6.12
2018-03-29T06:24:49.362Z,6.25
2018-03-29T06:25:23.216Z,6.80
2018-03-29T06:25:57.075Z,5.93
2018-03-29T06:26:31.414Z,5.68
2018-03-29T06:27:05.512Z,6.62
2018-03-29T06:27:39.507Z,6.28
2018-03-29T06:28:13.359Z,5.95
2018-03-29T06:28:47.413Z,5.85
2018-03-29T06:29:21.362Z,6.20
2018-03-29T06:29:55.221Z,6.00
2018-03-29T06:30:29.175Z,6.28
2018-03-29T06:31:03.215Z,6.70
2018-03-29T06:31:37.392Z,6.07
2018-03-29T06:32:11.246Z,5.47
2018-03-29T06:32:45.283Z,5.70
2018-03-29T06:33:19.385Z,6.03
2018-03-29T06:33:53.794Z,5.20
2018-03-29T06:34:27.676Z,5.53
2018-03-29T06:35:01.548Z,5.20
2018-03-29T06:35:35.422Z,5.12
2018-03-29T06:36:09.293Z,4.90
2018-03-29T06:36:43.170Z,5.50
2018-03-29T06:37:17.041Z,4.55
2018-03-29T06:37:50.924Z,5.40
2018-03-29T06:38:24.892Z,5.70
2018-03-29T06:38:58.974Z,5.28
2018-03-29T06:39:32.969Z,5.30
2018-03-29T06:40:06.820Z,5.55
2018-03-29T06:40:40.705Z,5.55
2018-03-29T06:41:14.580Z,5.00
2018-03-29T06:41:48.632Z,5.15
2018-03-29T06:42:22.530Z,5.05
2018-03-29T06:42:56.380Z,5.75
2018-03-29T06:43:30.322Z,4.95
2018-03-29T06:44:04.197Z,5.50
2018-03-29T06:44:38.348Z,4.80
2018-03-29T06:45:12.317Z,5.53
2018-03-29T06:45:46.190Z,5.35
2018-03-29T06:46:20.089Z,5.90
2018-03-29T06:46:54.018Z,5.20
2018-03-29T06:47:28.000Z,4.85
2018-03-29T06:48:02.097Z,4.60
2018-03-29T06:48:35.981Z,4.85
2018-03-29T06:49:09.834Z,4.75
2018-03-29T06:49:43.882Z,4.97
2018-03-29T06:50:17.782Z,4.80
2018-03-29T06:50:51.653Z,5.35
2018-03-29T06:51:25.517Z,4.07
2018-03-29T06:51:59.381Z,5.12
2018-03-29T06:52:33.218Z,5.28
2018-03-29T06:53:07.071Z,5.10
2018-03-29T06:53:40.926Z,5.53
2018-03-29T06:54:14.783Z,4.35
2018-03-29T06:54:48.657Z,5.00
2018-03-29T06:55:22.507Z,4.55
2018-03-29T06:55:56.631Z,5.30
2018-03-29T06:56:30.484Z,4.60
2018-03-29T06:57:04.421Z,4.65
2018-03-29T06:57:38.528Z,4.30
2018-03-29T06:58:12.607Z,4.43
2018-03-29T06:58:46.462Z,5.05
2018-03-29T06:59:20.320Z,4.97
2018-03-29T06:59:54.178Z,4.40
2018-03-29T07:00:28.046Z,4.28
2018-03-29T07:01:01.991Z,3.90
2018-03-29T07:01:35.773Z,4.50
2018-03-29T07:02:09.654Z,4.30
2018-03-29T07:02:43.518Z,4.40
2018-03-29T07:03:17.438Z,5.10
2018-03-29T07:03:51.351Z,4.70
2018-03-29T07:04:25.234Z,4.60
2018-03-29T07:04:59.101Z,3.85
2018-03-29T07:05:32.990Z,3.67
2018-03-29T07:06:06.859Z,4.28
2018-03-29T07:06:41.109Z,5.30
2018-03-29T07:07:15.269Z,4.15
2018-03-29T07:07:49.153Z,5.50
2018-03-29T07:08:23.044Z,4.25
2018-03-29T07:08:57.060Z,4.15
2018-03-29T07:09:30.920Z,4.15
2018-03-29T07:10:05.037Z,4.05
2018-03-29T07:10:39.042Z,4.20
2018-03-29T07:11:12.921Z,4.37
2018-03-29T07:11:46.819Z,4.50
2018-03-29T07:12:20.754Z,4.30
2018-03-29T07:12:54.617Z,4.62
2018-03-29T07:13:28.498Z,4.87
2018-03-29T07:14:02.368Z,4.45
2018-03-29T07:14:36.271Z,4.80
2018-03-29T07:15:10.162Z,5.10
2018-03-29T07:15:44.033Z,4.40
2018-03-29T07:16:17.904Z,4.12
2018-03-29T07:16:51.762Z,4.40
2018-03-29T07:17:25.883Z,4.40
2018-03-29T07:17:59.745Z,3.17
2018-03-29T07:18:33.594Z,4.10
2018-03-29T07:19:07.564Z,4.12
2018-03-29T07:19:41.436Z,4.20
2018-03-29T07:20:15.309Z,3.60
2018-03-29T07:20:49.170Z,4.28
2018-03-29T07:21:23.049Z,4.55